Atlantic Nyala — 9HYD9 — position and weather

sailwx.info

Track history (hours):
 
Tides and Currents Weather Stations Pressure Air Temp Water Temp Dewpoint Dewpoint Depression Visibility Wind Speed Wind Dir Waves Ship Positions

Atlantic Nyala

Last reported at 2015-May-18 00:12 UTC. Time now 2015-May-25 03:31 UTC.
Position N 33°59' W 013°45'.

Length 173 m; draft 8.8 m.

Type: Ship. MMSI: 249692000.

Date/timePositionNaut miles runAvg speedWind from/ knotsBaromVisibWave heightAir tempDewpointWater temp
2015-May-18 00:12N 33°59' W 013°45'913.8
2015-May-17 23:34N 34°07' W 013°42'1414.0
2015-May-17 22:33N 34°21' W 013°36'10014.0
2015-May-17 15:23N 35°57' W 013°01'2 2.8
2015-May-17 14:33N 35°58' W 012°59'3 3.5
2015-May-17 13:33N 36°01' W 012°57'  
2015-May-14 02:08N 50°15' W 001°25'3011.1
2015-May-13 23:24N 50°23' W 000°40'1312.2
2015-May-13 22:22N 50°27' W 000°21'1011.9
2015-May-13 21:32N 50°29' W 000°05'1111.6
2015-May-13 20:33N 50°32' E 000°12'1111.0
2015-May-13 19:33N 50°35' E 000°28'1010.1
2015-May-13 18:33N 50°40' E 000°42'1010.2
2015-May-13 17:33N 50°47' E 000°54'1010.5
2015-May-13 16:33N 50°54' E 001°07'1211.8
2015-May-13 15:33N 51°01' E 001°22'1413.7
2015-May-13 14:34N 51°10' E 001°39'1312.8
2015-May-13 13:34N 51°19' E 001°52'9 9.4
2015-May-13 12:34N 51°23' E 002°06'10 9.9
2015-May-13 11:33N 51°21' E 002°21'10 9.8
2015-May-13 10:33N 51°23' E 002°37'10 9.8
2015-May-13 09:34N 51°23' E 002°53'1010.4
2015-May-13 08:33N 51°24' E 003°09'1110.5
2015-May-13 07:33N 51°25' E 003°26'9 8.6
2015-May-13 06:33N 51°26' E 003°40'8 7.9
2015-May-13 05:34N 51°21' E 003°49'8 7.5
2015-May-13 04:34N 51°26' E 003°58'7 7.4
2015-May-13 03:33N 51°23' E 004°09'6 5.3
2015-May-13 02:31N 51°21' E 004°17'0 0.0
2015-May-13 01:28N 51°21' E 004°17'0 0.4
2015-May-13 00:31N 51°21' E 004°18'4 4.0
2015-May-12 23:34N 51°17' E 004°20'4 3.5
2015-May-12 22:34N 51°15' E 004°24'1 0.7
2015-May-12 21:30N 51°16' E 004°24'0 0.0
2015-May-12 20:33N 51°16' E 004°24'0 0.0
2015-May-12 19:33N 51°16' E 004°24'0 0.0
2015-May-12 18:33N 51°16' E 004°24'0 0.0
2015-May-12 17:33N 51°16' E 004°24'0 0.0
2015-May-12 16:33N 51°16' E 004°24'0 0.0
2015-May-12 15:33N 51°16' E 004°24'0 0.0
2015-May-12 14:33N 51°16' E 004°24'0 0.0
2015-May-12 13:33N 51°16' E 004°24'0 0.0
2015-May-12 12:33N 51°16' E 004°24'0 0.0
2015-May-12 11:33N 51°16' E 004°24'0 0.0
2015-May-12 10:33N 51°16' E 004°24'0 0.0
2015-May-12 09:33N 51°16' E 004°24'0 0.0
2015-May-12 08:33N 51°16' E 004°24'0 0.0
2015-May-12 07:33N 51°16' E 004°24'0 0.0
2015-May-12 06:33N 51°16' E 004°24'0 0.0
2015-May-12 05:33N 51°16' E 004°24'0 0.0
2015-May-12 04:33N 51°16' E 004°24'0 0.0
2015-May-12 03:33N 51°16' E 004°24'0 0.0
2015-May-12 02:33N 51°16' E 004°24'0 0.0
2015-May-12 01:33N 51°16' E 004°24'0 0.0
2015-May-12 00:33N 51°16' E 004°24'0 0.0
2015-May-11 23:33N 51°16' E 004°24'0 0.0
2015-May-11 22:33N 51°16' E 004°24'0 0.0
2015-May-11 21:33N 51°16' E 004°24'0 0.0
2015-May-11 20:33N 51°16' E 004°24'0 0.0
2015-May-11 19:33N 51°16' E 004°24'0 0.0
2015-May-11 18:33N 51°16' E 004°24'0 0.0
2015-May-11 17:33N 51°16' E 004°24'0 0.0
2015-May-11 16:33N 51°16' E 004°24'0 0.0
2015-May-11 15:33N 51°16' E 004°24'0 0.0
2015-May-11 14:33N 51°16' E 004°24'0 0.0
2015-May-11 13:33N 51°16' E 004°24'0 0.0
2015-May-11 12:33N 51°16' E 004°24'0 0.0
2015-May-11 11:33N 51°16' E 004°24'0 0.0
2015-May-11 10:33N 51°16' E 004°24'0 0.0
2015-May-11 09:33N 51°16' E 004°24'0 0.0
2015-May-11 08:33N 51°16' E 004°24'0 0.0
2015-May-11 07:33N 51°16' E 004°24'0 0.0
2015-May-11 06:33N 51°16' E 004°24'0 0.0
2015-May-11 05:33N 51°16' E 004°24'0 0.0
2015-May-11 04:33N 51°16' E 004°24'0 0.0
2015-May-11 03:33N 51°16' E 004°24'0 0.0
2015-May-11 02:33N 51°16' E 004°24'0 0.0
2015-May-11 01:33N 51°16' E 004°24'0 0.0
2015-May-11 00:33N 51°16' E 004°24'0 0.0
2015-May-10 23:33N 51°16' E 004°24'0 0.0
2015-May-10 22:33N 51°16' E 004°24'0 0.0
2015-May-10 21:33N 51°16' E 004°24'0 0.0
2015-May-10 20:33N 51°16' E 004°24'0 0.0
2015-May-10 19:33N 51°16' E 004°24'0 0.0
2015-May-10 18:33N 51°16' E 004°24'0 0.0
2015-May-10 17:33N 51°16' E 004°24'0 0.0
2015-May-10 16:33N 51°16' E 004°24'0 0.0
2015-May-10 15:33N 51°16' E 004°24'0 0.0
2015-May-10 14:33N 51°16' E 004°24'0 0.0
2015-May-10 13:33N 51°16' E 004°24'0 0.0
2015-May-10 12:33N 51°16' E 004°24'0 0.0
2015-May-10 11:33N 51°16' E 004°24'0 0.0
2015-May-10 10:33N 51°16' E 004°24'0 0.0
2015-May-10 09:33N 51°16' E 004°24'0 0.0
2015-May-10 08:33N 51°16' E 004°24'0 0.0
2015-May-10 07:33N 51°16' E 004°24'0 0.0
2015-May-10 06:33N 51°16' E 004°24'0 0.0
2015-May-10 05:33N 51°16' E 004°24'0 0.0
2015-May-10 04:33N 51°16' E 004°24'0 0.0
2015-May-10 03:33N 51°16' E 004°24'0 0.0
2015-May-10 02:33N 51°16' E 004°24'0 0.0
2015-May-10 01:33N 51°16' E 004°24'0 0.0
2015-May-10 00:33N 51°16' E 004°24'0 0.0
2015-May-09 23:33N 51°16' E 004°24'0 0.0
2015-May-09 22:33N 51°16' E 004°24'0 0.0
2015-May-09 21:33N 51°16' E 004°24'0 0.0
2015-May-09 20:33N 51°16' E 004°24'0 0.0
2015-May-09 19:33N 51°16' E 004°24'0 0.0
2015-May-09 18:33N 51°16' E 004°24'0 0.0
2015-May-09 17:33N 51°16' E 004°24'0 0.0
2015-May-09 16:33N 51°16' E 004°24'0 0.0
2015-May-09 15:33N 51°16' E 004°24'0 0.0
2015-May-09 14:33N 51°16' E 004°24'0 0.0
2015-May-09 13:30N 51°16' E 004°24'0 0.0
2015-May-09 12:33N 51°16' E 004°24'0 0.0
2015-May-09 11:33N 51°16' E 004°24'0 0.0
2015-May-09 10:33N 51°16' E 004°24'0 0.0
2015-May-09 09:33N 51°16' E 004°24'0 0.0
2015-May-09 08:33N 51°16' E 004°24'0 0.0
2015-May-09 07:33N 51°16' E 004°24'0 0.0
2015-May-09 06:33N 51°16' E 004°24'0 0.0
2015-May-09 05:33N 51°16' E 004°24'0 0.0
2015-May-09 04:33N 51°16' E 004°24'0 0.0
2015-May-09 03:33N 51°16' E 004°24'0 0.0
2015-May-09 02:33N 51°16' E 004°24'0 0.0
2015-May-09 01:33N 51°16' E 004°24'0 0.0
2015-May-09 00:33N 51°16' E 004°24'0 0.0
2015-May-08 23:33N 51°16' E 004°24'0 0.0
2015-May-08 22:33N 51°16' E 004°24'0 0.0
2015-May-08 21:33N 51°16' E 004°24'0 0.0
2015-May-08 20:33N 51°16' E 004°24'0 0.0
2015-May-08 19:33N 51°16' E 004°24'0 0.0
2015-May-08 18:33N 51°16' E 004°24'0 0.0
2015-May-08 17:33N 51°16' E 004°24'0 0.0
2015-May-08 16:33N 51°16' E 004°24'0 0.0
2015-May-08 15:33N 51°16' E 004°24'0 0.0
2015-May-08 14:33N 51°16' E 004°24'0 0.0
2015-May-08 13:33N 51°16' E 004°24'0 0.0
2015-May-08 12:33N 51°16' E 004°24'0 0.0
2015-May-08 11:33N 51°16' E 004°24'0 0.0
2015-May-08 10:33N 51°16' E 004°24'0 0.0
2015-May-08 09:33N 51°16' E 004°24'0 0.0
2015-May-08 08:33N 51°16' E 004°24'0 0.0
2015-May-08 07:33N 51°16' E 004°24'0 0.0
2015-May-08 06:33N 51°16' E 004°24'0 0.0
2015-May-08 05:33N 51°16' E 004°24'0 0.0
2015-May-08 04:33N 51°16' E 004°24'0 0.0
2015-May-08 03:33N 51°16' E 004°24'0 0.0
2015-May-08 02:33N 51°16' E 004°24'0 0.0
2015-May-08 01:33N 51°16' E 004°24'0 0.0
2015-May-08 00:33N 51°16' E 004°24'  
Track history (hours):
 
Tides and Currents Weather Stations Pressure Air Temp Water Temp Dewpoint Dewpoint Depression Visibility Wind Speed Wind Dir Waves Ship Positions

Atlantic Nyala

Last reported at 2015-May-18 00:12 UTC. Time now 2015-May-25 03:31 UTC.
Position N 33°59' W 013°45'.

Length 173 m; draft 8.8 m.

Type: Ship. MMSI: 249692000.

Date/timePositionNaut miles runAvg speedWind from/ knotsBaromVisibWave heightAir tempDewpointWater temp
2015-May-18 00:12N 33°59' W 013°45'913.8
2015-May-17 23:34N 34°07' W 013°42'1414.0
2015-May-17 22:33N 34°21' W 013°36'10014.0
2015-May-17 15:23N 35°57' W 013°01'2 2.8
2015-May-17 14:33N 35°58' W 012°59'3 3.5
2015-May-17 13:33N 36°01' W 012°57'  
2015-May-14 02:08N 50°15' W 001°25'3011.1
2015-May-13 23:24N 50°23' W 000°40'1312.2
2015-May-13 22:22N 50°27' W 000°21'1011.9
2015-May-13 21:32N 50°29' W 000°05'1111.6
2015-May-13 20:33N 50°32' E 000°12'1111.0
2015-May-13 19:33N 50°35' E 000°28'1010.1
2015-May-13 18:33N 50°40' E 000°42'1010.2
2015-May-13 17:33N 50°47' E 000°54'1010.5
2015-May-13 16:33N 50°54' E 001°07'1211.8
2015-May-13 15:33N 51°01' E 001°22'1413.7
2015-May-13 14:34N 51°10' E 001°39'1312.8
2015-May-13 13:34N 51°19' E 001°52'9 9.4
2015-May-13 12:34N 51°23' E 002°06'10 9.9
2015-May-13 11:33N 51°21' E 002°21'10 9.8
2015-May-13 10:33N 51°23' E 002°37'10 9.8
2015-May-13 09:34N 51°23' E 002°53'1010.4
2015-May-13 08:33N 51°24' E 003°09'1110.5
2015-May-13 07:33N 51°25' E 003°26'9 8.6
2015-May-13 06:33N 51°26' E 003°40'8 7.9
2015-May-13 05:34N 51°21' E 003°49'8 7.5
2015-May-13 04:34N 51°26' E 003°58'7 7.4
2015-May-13 03:33N 51°23' E 004°09'6 5.3
2015-May-13 02:31N 51°21' E 004°17'0 0.0
2015-May-13 01:28N 51°21' E 004°17'0 0.4
2015-May-13 00:31N 51°21' E 004°18'4 4.0
2015-May-12 23:34N 51°17' E 004°20'4 3.5
2015-May-12 22:34N 51°15' E 004°24'1 0.7
2015-May-12 21:30N 51°16' E 004°24'0 0.0
2015-May-12 20:33N 51°16' E 004°24'0 0.0
2015-May-12 19:33N 51°16' E 004°24'0 0.0
2015-May-12 18:33N 51°16' E 004°24'0 0.0
2015-May-12 17:33N 51°16' E 004°24'0 0.0
2015-May-12 16:33N 51°16' E 004°24'0 0.0
2015-May-12 15:33N 51°16' E 004°24'0 0.0
2015-May-12 14:33N 51°16' E 004°24'0 0.0
2015-May-12 13:33N 51°16' E 004°24'0 0.0
2015-May-12 12:33N 51°16' E 004°24'0 0.0
2015-May-12 11:33N 51°16' E 004°24'0 0.0
2015-May-12 10:33N 51°16' E 004°24'0 0.0
2015-May-12 09:33N 51°16' E 004°24'0 0.0
2015-May-12 08:33N 51°16' E 004°24'0 0.0
2015-May-12 07:33N 51°16' E 004°24'0 0.0
2015-May-12 06:33N 51°16' E 004°24'0 0.0
2015-May-12 05:33N 51°16' E 004°24'0 0.0
2015-May-12 04:33N 51°16' E 004°24'0 0.0
2015-May-12 03:33N 51°16' E 004°24'0 0.0
2015-May-12 02:33N 51°16' E 004°24'0 0.0
2015-May-12 01:33N 51°16' E 004°24'0 0.0
2015-May-12 00:33N 51°16' E 004°24'0 0.0
2015-May-11 23:33N 51°16' E 004°24'0 0.0
2015-May-11 22:33N 51°16' E 004°24'0 0.0
2015-May-11 21:33N 51°16' E 004°24'0 0.0
2015-May-11 20:33N 51°16' E 004°24'0 0.0
2015-May-11 19:33N 51°16' E 004°24'0 0.0
2015-May-11 18:33N 51°16' E 004°24'0 0.0
2015-May-11 17:33N 51°16' E 004°24'0 0.0
2015-May-11 16:33N 51°16' E 004°24'0 0.0
2015-May-11 15:33N 51°16' E 004°24'0 0.0
2015-May-11 14:33N 51°16' E 004°24'0 0.0
2015-May-11 13:33N 51°16' E 004°24'0 0.0
2015-May-11 12:33N 51°16' E 004°24'0 0.0
2015-May-11 11:33N 51°16' E 004°24'0 0.0
2015-May-11 10:33N 51°16' E 004°24'0 0.0
2015-May-11 09:33N 51°16' E 004°24'0 0.0
2015-May-11 08:33N 51°16' E 004°24'0 0.0
2015-May-11 07:33N 51°16' E 004°24'0 0.0
2015-May-11 06:33N 51°16' E 004°24'0 0.0
2015-May-11 05:33N 51°16' E 004°24'0 0.0
2015-May-11 04:33N 51°16' E 004°24'0 0.0
2015-May-11 03:33N 51°16' E 004°24'0 0.0
2015-May-11 02:33N 51°16' E 004°24'0 0.0
2015-May-11 01:33N 51°16' E 004°24'0 0.0
2015-May-11 00:33N 51°16' E 004°24'0 0.0
2015-May-10 23:33N 51°16' E 004°24'0 0.0
2015-May-10 22:33N 51°16' E 004°24'0 0.0
2015-May-10 21:33N 51°16' E 004°24'0 0.0
2015-May-10 20:33N 51°16' E 004°24'0 0.0
2015-May-10 19:33N 51°16' E 004°24'0 0.0
2015-May-10 18:33N 51°16' E 004°24'0 0.0
2015-May-10 17:33N 51°16' E 004°24'0 0.0
2015-May-10 16:33N 51°16' E 004°24'0 0.0
2015-May-10 15:33N 51°16' E 004°24'0 0.0
2015-May-10 14:33N 51°16' E 004°24'0 0.0
2015-May-10 13:33N 51°16' E 004°24'0 0.0
2015-May-10 12:33N 51°16' E 004°24'0 0.0
2015-May-10 11:33N 51°16' E 004°24'0 0.0
2015-May-10 10:33N 51°16' E 004°24'0 0.0
2015-May-10 09:33N 51°16' E 004°24'0 0.0
2015-May-10 08:33N 51°16' E 004°24'0 0.0
2015-May-10 07:33N 51°16' E 004°24'0 0.0
2015-May-10 06:33N 51°16' E 004°24'0 0.0
2015-May-10 05:33N 51°16' E 004°24'0 0.0
2015-May-10 04:33N 51°16' E 004°24'0 0.0
2015-May-10 03:33N 51°16' E 004°24'0 0.0
2015-May-10 02:33N 51°16' E 004°24'0 0.0
2015-May-10 01:33N 51°16' E 004°24'0 0.0
2015-May-10 00:33N 51°16' E 004°24'0 0.0
2015-May-09 23:33N 51°16' E 004°24'0 0.0
2015-May-09 22:33N 51°16' E 004°24'0 0.0
2015-May-09 21:33N 51°16' E 004°24'0 0.0
2015-May-09 20:33N 51°16' E 004°24'0 0.0
2015-May-09 19:33N 51°16' E 004°24'0 0.0
2015-May-09 18:33N 51°16' E 004°24'0 0.0
2015-May-09 17:33N 51°16' E 004°24'0 0.0
2015-May-09 16:33N 51°16' E 004°24'0 0.0
2015-May-09 15:33N 51°16' E 004°24'0 0.0
2015-May-09 14:33N 51°16' E 004°24'0 0.0
2015-May-09 13:30N 51°16' E 004°24'0 0.0
2015-May-09 12:33N 51°16' E 004°24'0 0.0
2015-May-09 11:33N 51°16' E 004°24'0 0.0
2015-May-09 10:33N 51°16' E 004°24'0 0.0
2015-May-09 09:33N 51°16' E 004°24'0 0.0
2015-May-09 08:33N 51°16' E 004°24'0 0.0
2015-May-09 07:33N 51°16' E 004°24'0 0.0
2015-May-09 06:33N 51°16' E 004°24'0 0.0
2015-May-09 05:33N 51°16' E 004°24'0 0.0
2015-May-09 04:33N 51°16' E 004°24'0 0.0
2015-May-09 03:33N 51°16' E 004°24'0 0.0
2015-May-09 02:33N 51°16' E 004°24'0 0.0
2015-May-09 01:33N 51°16' E 004°24'0 0.0
2015-May-09 00:33N 51°16' E 004°24'0 0.0
2015-May-08 23:33N 51°16' E 004°24'0 0.0
2015-May-08 22:33N 51°16' E 004°24'0 0.0
2015-May-08 21:33N 51°16' E 004°24'0 0.0
2015-May-08 20:33N 51°16' E 004°24'0 0.0
2015-May-08 19:33N 51°16' E 004°24'0 0.0
2015-May-08 18:33N 51°16' E 004°24'0 0.0
2015-May-08 17:33N 51°16' E 004°24'0 0.0
2015-May-08 16:33N 51°16' E 004°24'0 0.0
2015-May-08 15:33N 51°16' E 004°24'0 0.0
2015-May-08 14:33N 51°16' E 004°24'0 0.0
2015-May-08 13:33N 51°16' E 004°24'0 0.0
2015-May-08 12:33N 51°16' E 004°24'0 0.0
2015-May-08 11:33N 51°16' E 004°24'0 0.0
2015-May-08 10:33N 51°16' E 004°24'0 0.0
2015-May-08 09:33N 51°16' E 004°24'0 0.0
2015-May-08 08:33N 51°16' E 004°24'0 0.0
2015-May-08 07:33N 51°16' E 004°24'0 0.0
2015-May-08 06:33N 51°16' E 004°24'0 0.0
2015-May-08 05:33N 51°16' E 004°24'0 0.0
2015-May-08 04:33N 51°16' E 004°24'0 0.0
2015-May-08 03:33N 51°16' E 004°24'0 0.0
2015-May-08 02:33N 51°16' E 004°24'0 0.0
2015-May-08 01:33N 51°16' E 004°24'0 0.0
2015-May-08 00:33N 51°16' E 004°24'  

Dump ship's entire track history